sensor_id;sensor_type;location;lat;lon;timestamp;temperature;humidity
53254;DHT22;39148;53.332;6.922;2023-06-19T00:01:48;25.10;75.00
53254;DHT22;39148;53.332;6.922;2023-06-19T00:04:14;25.00;75.00
53254;DHT22;39148;53.332;6.922;2023-06-19T00:06:39;24.90;75.50
53254;DHT22;39148;53.332;6.922;2023-06-19T00:09:06;24.90;75.20
53254;DHT22;39148;53.332;6.922;2023-06-19T00:11:32;25.00;75.70
53254;DHT22;39148;53.332;6.922;2023-06-19T00:13:58;25.00;75.80
53254;DHT22;39148;53.332;6.922;2023-06-19T00:16:24;24.90;75.90
53254;DHT22;39148;53.332;6.922;2023-06-19T00:18:53;25.00;75.80
53254;DHT22;39148;53.332;6.922;2023-06-19T00:21:22;24.90;75.50
53254;DHT22;39148;53.332;6.922;2023-06-19T00:23:50;25.10;75.50
53254;DHT22;39148;53.332;6.922;2023-06-19T00:26:16;24.90;76.20
53254;DHT22;39148;53.332;6.922;2023-06-19T00:28:42;24.90;75.80
53254;DHT22;39148;53.332;6.922;2023-06-19T00:31:09;24.90;75.50
53254;DHT22;39148;53.332;6.922;2023-06-19T00:33:37;24.90;75.80
53254;DHT22;39148;53.332;6.922;2023-06-19T00:36:12;24.80;75.70
53254;DHT22;39148;53.332;6.922;2023-06-19T00:38:39;24.90;75.60
53254;DHT22;39148;53.332;6.922;2023-06-19T00:41:05;24.80;76.00
53254;DHT22;39148;53.332;6.922;2023-06-19T00:43:31;24.80;75.50
53254;DHT22;39148;53.332;6.922;2023-06-19T00:46:01;24.70;75.20
53254;DHT22;39148;53.332;6.922;2023-06-19T00:48:28;24.70;75.40
53254;DHT22;39148;53.332;6.922;2023-06-19T00:50:55;24.70;75.30
53254;DHT22;39148;53.332;6.922;2023-06-19T00:53:22;24.70;75.30
53254;DHT22;39148;53.332;6.922;2023-06-19T00:55:49;24.70;75.30
53254;DHT22;39148;53.332;6.922;2023-06-19T00:58:17;24.80;75.40
53254;DHT22;39148;53.332;6.922;2023-06-19T01:00:43;24.70;75.40
53254;DHT22;39148;53.332;6.922;2023-06-19T01:03:09;24.50;75.30
53254;DHT22;39148;53.332;6.922;2023-06-19T01:05:35;24.70;75.50
53254;DHT22;39148;53.332;6.922;2023-06-19T01:08:22;24.70;75.40
53254;DHT22;39148;53.332;6.922;2023-06-19T01:10:57;24.60;75.70
53254;DHT22;39148;53.332;6.922;2023-06-19T01:13:47;24.60;75.50
53254;DHT22;39148;53.332;6.922;2023-06-19T01:16:14;24.60;74.50
53254;DHT22;39148;53.332;6.922;2023-06-19T01:18:42;24.40;75.30
53254;DHT22;39148;53.332;6.922;2023-06-19T01:21:11;24.60;75.50
53254;DHT22;39148;53.332;6.922;2023-06-19T01:23:37;24.50;75.70
53254;DHT22;39148;53.332;6.922;2023-06-19T01:26:03;24.60;75.50
53254;DHT22;39148;53.332;6.922;2023-06-19T01:28:29;24.50;75.50
53254;DHT22;39148;53.332;6.922;2023-06-19T01:30:55;24.60;75.60
53254;DHT22;39148;53.332;6.922;2023-06-19T01:33:26;24.50;75.70
53254;DHT22;39148;53.332;6.922;2023-06-19T01:35:52;24.50;75.70
53254;DHT22;39148;53.332;6.922;2023-06-19T01:38:20;24.50;75.60
53254;DHT22;39148;53.332;6.922;2023-06-19T01:40:49;24.30;75.60
53254;DHT22;39148;53.332;6.922;2023-06-19T01:43:16;24.30;75.60
53254;DHT22;39148;53.332;6.922;2023-06-19T01:45:42;24.40;75.70
53254;DHT22;39148;53.332;6.922;2023-06-19T01:48:08;24.30;75.60
53254;DHT22;39148;53.332;6.922;2023-06-19T01:50:34;24.40;75.70
53254;DHT22;39148;53.332;6.922;2023-06-19T01:53:00;24.30;75.60
53254;DHT22;39148;53.332;6.922;2023-06-19T01:55:25;24.40;75.70
53254;DHT22;39148;53.332;6.922;2023-06-19T01:57:51;24.40;75.60
53254;DHT22;39148;53.332;6.922;2023-06-19T02:00:17;24.40;75.80
53254;DHT22;39148;53.332;6.922;2023-06-19T02:02:43;24.40;75.60
53254;DHT22;39148;53.332;6.922;2023-06-19T02:05:09;24.40;75.80
53254;DHT22;39148;53.332;6.922;2023-06-19T02:07:35;24.40;75.90
53254;DHT22;39148;53.332;6.922;2023-06-19T02:10:01;24.30;75.70
53254;DHT22;39148;53.332;6.922;2023-06-19T02:12:27;24.30;75.90
53254;DHT22;39148;53.332;6.922;2023-06-19T02:14:52;24.50;75.90
53254;DHT22;39148;53.332;6.922;2023-06-19T02:17:18;24.30;75.90
53254;DHT22;39148;53.332;6.922;2023-06-19T02:19:44;24.30;75.70
53254;DHT22;39148;53.332;6.922;2023-06-19T02:22:09;24.30;75.80
53254;DHT22;39148;53.332;6.922;2023-06-19T02:24:35;24.20;75.80
53254;DHT22;39148;53.332;6.922;2023-06-19T02:27:02;24.20;75.80
53254;DHT22;39148;53.332;6.922;2023-06-19T02:29:28;24.30;75.90
53254;DHT22;39148;53.332;6.922;2023-06-19T02:31:59;24.20;75.80
53254;DHT22;39148;53.332;6.922;2023-06-19T02:34:25;24.20;75.90
53254;DHT22;39148;53.332;6.922;2023-06-19T02:36:51;24.20;75.90
53254;DHT22;39148;53.332;6.922;2023-06-19T02:39:17;24.20;75.90
53254;DHT22;39148;53.332;6.922;2023-06-19T02:41:43;24.20;75.90
53254;DHT22;39148;53.332;6.922;2023-06-19T02:44:12;24.20;76.00
53254;DHT22;39148;53.332;6.922;2023-06-19T02:46:38;24.20;76.00
53254;DHT22;39148;53.332;6.922;2023-06-19T02:49:03;24.20;75.90
53254;DHT22;39148;53.332;6.922;2023-06-19T02:51:29;24.10;76.00
53254;DHT22;39148;53.332;6.922;2023-06-19T02:53:55;24.10;75.90
53254;DHT22;39148;53.332;6.922;2023-06-19T02:56:21;24.10;76.00
53254;DHT22;39148;53.332;6.922;2023-06-19T02:58:46;24.20;76.10
53254;DHT22;39148;53.332;6.922;2023-06-19T03:01:12;24.20;76.00
53254;DHT22;39148;53.332;6.922;2023-06-19T03:03:38;24.00;75.90
53254;DHT22;39148;53.332;6.922;2023-06-19T03:06:07;24.10;76.00
53254;DHT22;39148;53.332;6.922;2023-06-19T03:08:37;24.00;76.00
53254;DHT22;39148;53.332;6.922;2023-06-19T03:11:03;24.10;76.20
53254;DHT22;39148;53.332;6.922;2023-06-19T03:13:53;24.30;76.20
53254;DHT22;39148;53.332;6.922;2023-06-19T03:16:19;24.00;74.90
53254;DHT22;39148;53.332;6.922;2023-06-19T03:18:45;24.00;76.00
53254;DHT22;39148;53.332;6.922;2023-06-19T03:21:12;24.00;75.90
53254;DHT22;39148;53.332;6.922;2023-06-19T03:23:38;24.10;76.10
53254;DHT22;39148;53.332;6.922;2023-06-19T03:26:04;23.90;75.80
53254;DHT22;39148;53.332;6.922;2023-06-19T03:28:29;24.00;75.90
53254;DHT22;39148;53.332;6.922;2023-06-19T03:30:55;23.90;76.00
53254;DHT22;39148;53.332;6.922;2023-06-19T03:33:21;24.10;76.00
53254;DHT22;39148;53.332;6.922;2023-06-19T03:35:46;24.10;76.00
53254;DHT22;39148;53.332;6.922;2023-06-19T03:38:12;23.90;75.90
53254;DHT22;39148;53.332;6.922;2023-06-19T03:40:38;24.00;76.00
53254;DHT22;39148;53.332;6.922;2023-06-19T03:43:03;23.80;75.90
53254;DHT22;39148;53.332;6.922;2023-06-19T03:45:29;23.90;75.90
53254;DHT22;39148;53.332;6.922;2023-06-19T03:47:55;24.00;75.90
53254;DHT22;39148;53.332;6.922;2023-06-19T03:50:20;23.90;75.90
53254;DHT22;39148;53.332;6.922;2023-06-19T03:52:46;23.80;75.80
53254;DHT22;39148;53.332;6.922;2023-06-19T03:55:11;23.90;76.00
53254;DHT22;39148;53.332;6.922;2023-06-19T03:57:37;23.80;75.90
53254;DHT22;39148;53.332;6.922;2023-06-19T04:00:03;23.80;75.90
53254;DHT22;39148;53.332;6.922;2023-06-19T04:02:33;23.70;75.30
53254;DHT22;39148;53.332;6.922;2023-06-19T04:04:59;23.80;75.80
53254;DHT22;39148;53.332;6.922;2023-06-19T04:07:24;23.80;75.80
53254;DHT22;39148;53.332;6.922;2023-06-19T04:09:50;23.70;75.80
53254;DHT22;39148;53.332;6.922;2023-06-19T04:12:16;23.80;75.80
53254;DHT22;39148;53.332;6.922;2023-06-19T04:14:41;23.90;75.90
53254;DHT22;39148;53.332;6.922;2023-06-19T04:17:07;23.80;75.70
53254;DHT22;39148;53.332;6.922;2023-06-19T04:19:33;23.80;75.70
53254;DHT22;39148;53.332;6.922;2023-06-19T04:21:58;23.80;75.80
53254;DHT22;39148;53.332;6.922;2023-06-19T04:24:24;23.80;75.80
53254;DHT22;39148;53.332;6.922;2023-06-19T04:26:50;23.80;75.80
53254;DHT22;39148;53.332;6.922;2023-06-19T04:29:15;23.80;75.70
53254;DHT22;39148;53.332;6.922;2023-06-19T04:31:45;23.90;75.80
53254;DHT22;39148;53.332;6.922;2023-06-19T04:34:17;23.70;75.90
53254;DHT22;39148;53.332;6.922;2023-06-19T04:36:49;23.80;76.00
53254;DHT22;39148;53.332;6.922;2023-06-19T04:39:15;23.70;75.80
53254;DHT22;39148;53.332;6.922;2023-06-19T04:41:43;23.70;75.70
53254;DHT22;39148;53.332;6.922;2023-06-19T04:44:10;23.80;75.90
53254;DHT22;39148;53.332;6.922;2023-06-19T04:46:37;23.70;76.30
53254;DHT22;39148;53.332;6.922;2023-06-19T04:49:04;23.70;75.80
53254;DHT22;39148;53.332;6.922;2023-06-19T04:51:31;23.70;75.80
53254;DHT22;39148;53.332;6.922;2023-06-19T04:54:01;23.70;75.80
53254;DHT22;39148;53.332;6.922;2023-06-19T04:56:27;23.80;75.90
53254;DHT22;39148;53.332;6.922;2023-06-19T04:58:55;23.70;75.90
53254;DHT22;39148;53.332;6.922;2023-06-19T05:01:21;23.70;75.80
53254;DHT22;39148;53.332;6.922;2023-06-19T05:03:53;23.60;75.70
53254;DHT22;39148;53.332;6.922;2023-06-19T05:06:20;23.70;75.80
53254;DHT22;39148;53.332;6.922;2023-06-19T05:08:45;23.70;75.80
53254;DHT22;39148;53.332;6.922;2023-06-19T05:11:11;23.70;75.80
53254;DHT22;39148;53.332;6.922;2023-06-19T05:13:37;23.60;75.70
53254;DHT22;39148;53.332;6.922;2023-06-19T05:16:03;23.70;75.80
53254;DHT22;39148;53.332;6.922;2023-06-19T05:18:28;23.60;75.50
53254;DHT22;39148;53.332;6.922;2023-06-19T05:20:54;23.70;75.70
53254;DHT22;39148;53.332;6.922;2023-06-19T05:23:20;23.60;75.80
53254;DHT22;39148;53.332;6.922;2023-06-19T05:25:45;23.70;75.90
53254;DHT22;39148;53.332;6.922;2023-06-19T05:28:11;23.70;75.90
53254;DHT22;39148;53.332;6.922;2023-06-19T05:30:36;23.60;75.90
53254;DHT22;39148;53.332;6.922;2023-06-19T05:33:02;23.70;75.90
53254;DHT22;39148;53.332;6.922;2023-06-19T05:35:28;23.60;75.80
53254;DHT22;39148;53.332;6.922;2023-06-19T05:37:55;23.70;75.90
53254;DHT22;39148;53.332;6.922;2023-06-19T05:40:21;23.70;75.90
53254;DHT22;39148;53.332;6.922;2023-06-19T05:42:47;24.00;76.10
53254;DHT22;39148;53.332;6.922;2023-06-19T05:45:12;23.70;76.00
53254;DHT22;39148;53.332;6.922;2023-06-19T05:47:38;23.60;75.80
53254;DHT22;39148;53.332;6.922;2023-06-19T05:50:04;23.60;76.00
53254;DHT22;39148;53.332;6.922;2023-06-19T05:52:30;23.70;75.90
53254;DHT22;39148;53.332;6.922;2023-06-19T05:54:55;23.60;76.20
53254;DHT22;39148;53.332;6.922;2023-06-19T05:57:23;23.70;76.60
53254;DHT22;39148;53.332;6.922;2023-06-19T05:59:50;23.70;76.10
53254;DHT22;39148;53.332;6.922;2023-06-19T06:02:17;23.70;76.20
53254;DHT22;39148;53.332;6.922;2023-06-19T06:04:43;23.70;76.30
53254;DHT22;39148;53.332;6.922;2023-06-19T06:07:09;23.60;76.20
53254;DHT22;39148;53.332;6.922;2023-06-19T06:09:34;23.70;76.20
53254;DHT22;39148;53.332;6.922;2023-06-19T06:12:00;23.80;76.40
53254;DHT22;39148;53.332;6.922;2023-06-19T06:14:26;23.70;76.40
53254;DHT22;39148;53.332;6.922;2023-06-19T06:16:52;23.70;76.40
53254;DHT22;39148;53.332;6.922;2023-06-19T06:19:20;23.70;76.30
53254;DHT22;39148;53.332;6.922;2023-06-19T06:21:46;23.70;76.50
53254;DHT22;39148;53.332;6.922;2023-06-19T06:24:11;23.70;76.40
53254;DHT22;39148;53.332;6.922;2023-06-19T06:26:37;23.70;76.50
53254;DHT22;39148;53.332;6.922;2023-06-19T06:29:03;23.70;76.40
53254;DHT22;39148;53.332;6.922;2023-06-19T06:31:28;23.80;76.60
53254;DHT22;39148;53.332;6.922;2023-06-19T06:33:54;24.00;76.50
53254;DHT22;39148;53.332;6.922;2023-06-19T06:36:20;23.80;76.50
53254;DHT22;39148;53.332;6.922;2023-06-19T06:38:45;23.80;76.60
53254;DHT22;39148;53.332;6.922;2023-06-19T06:41:11;23.70;76.50
53254;DHT22;39148;53.332;6.922;2023-06-19T06:43:37;23.80;76.50
53254;DHT22;39148;53.332;6.922;2023-06-19T06:46:04;23.90;76.60
53254;DHT22;39148;53.332;6.922;2023-06-19T06:48:29;23.80;76.60
53254;DHT22;39148;53.332;6.922;2023-06-19T06:50:56;23.80;76.60
53254;DHT22;39148;53.332;6.922;2023-06-19T06:53:27;23.80;76.50
53254;DHT22;39148;53.332;6.922;2023-06-19T06:55:54;23.80;76.60
53254;DHT22;39148;53.332;6.922;2023-06-19T06:58:20;23.80;76.50
53254;DHT22;39148;53.332;6.922;2023-06-19T07:00:45;23.80;76.50
53254;DHT22;39148;53.332;6.922;2023-06-19T07:03:11;24.10;76.70
53254;DHT22;39148;53.332;6.922;2023-06-19T07:05:37;23.80;76.50
53254;DHT22;39148;53.332;6.922;2023-06-19T07:08:03;23.80;76.50
53254;DHT22;39148;53.332;6.922;2023-06-19T07:10:32;23.90;76.40
53254;DHT22;39148;53.332;6.922;2023-06-19T07:12:57;23.80;76.60
53254;DHT22;39148;53.332;6.922;2023-06-19T07:15:23;23.90;76.60
53254;DHT22;39148;53.332;6.922;2023-06-19T07:17:49;23.90;76.60
53254;DHT22;39148;53.332;6.922;2023-06-19T07:20:15;23.90;76.50
53254;DHT22;39148;53.332;6.922;2023-06-19T07:22:42;23.90;76.50
53254;DHT22;39148;53.332;6.922;2023-06-19T07:25:10;23.90;76.50
53254;DHT22;39148;53.332;6.922;2023-06-19T07:27:36;23.90;76.90
53254;DHT22;39148;53.332;6.922;2023-06-19T07:30:02;24.00;77.30
53254;DHT22;39148;53.332;6.922;2023-06-19T07:32:28;24.10;77.20
53254;DHT22;39148;53.332;6.922;2023-06-19T07:34:53;24.20;77.50
53254;DHT22;39148;53.332;6.922;2023-06-19T07:37:19;24.00;77.40
53254;DHT22;39148;53.332;6.922;2023-06-19T07:39:50;24.20;77.00
53254;DHT22;39148;53.332;6.922;2023-06-19T07:42:16;24.20;77.10
53254;DHT22;39148;53.332;6.922;2023-06-19T07:44:43;24.20;77.00
53254;DHT22;39148;53.332;6.922;2023-06-19T07:47:09;24.00;76.80
53254;DHT22;39148;53.332;6.922;2023-06-19T07:49:35;24.10;77.40
53254;DHT22;39148;53.332;6.922;2023-06-19T07:52:01;24.20;77.50
53254;DHT22;39148;53.332;6.922;2023-06-19T07:54:27;24.00;76.90
53254;DHT22;39148;53.332;6.922;2023-06-19T07:56:53;24.10;77.70
53254;DHT22;39148;53.332;6.922;2023-06-19T07:59:19;24.40;77.90
53254;DHT22;39148;53.332;6.922;2023-06-19T08:01:45;24.10;77.10
53254;DHT22;39148;53.332;6.922;2023-06-19T08:04:10;24.10;77.60
53254;DHT22;39148;53.332;6.922;2023-06-19T08:06:36;24.20;77.70
53254;DHT22;39148;53.332;6.922;2023-06-19T08:09:02;24.20;77.70
53254;DHT22;39148;53.332;6.922;2023-06-19T08:11:28;24.10;77.20
53254;DHT22;39148;53.332;6.922;2023-06-19T08:13:54;24.10;77.30
53254;DHT22;39148;53.332;6.922;2023-06-19T08:16:20;24.20;77.00
53254;DHT22;39148;53.332;6.922;2023-06-19T08:18:46;24.20;77.10
53254;DHT22;39148;53.332;6.922;2023-06-19T08:21:13;24.10;77.00
53254;DHT22;39148;53.332;6.922;2023-06-19T08:23:39;24.10;77.10
53254;DHT22;39148;53.332;6.922;2023-06-19T08:26:06;24.10;77.00
53254;DHT22;39148;53.332;6.922;2023-06-19T08:28:33;24.10;77.00
53254;DHT22;39148;53.332;6.922;2023-06-19T08:30:59;24.20;77.00
53254;DHT22;39148;53.332;6.922;2023-06-19T08:33:25;24.10;77.10
53254;DHT22;39148;53.332;6.922;2023-06-19T08:35:50;24.10;77.00
53254;DHT22;39148;53.332;6.922;2023-06-19T08:38:16;24.10;77.10
53254;DHT22;39148;53.332;6.922;2023-06-19T08:40:42;24.10;77.00
53254;DHT22;39148;53.332;6.922;2023-06-19T08:43:11;24.20;77.10
53254;DHT22;39148;53.332;6.922;2023-06-19T08:45:37;24.10;77.10
53254;DHT22;39148;53.332;6.922;2023-06-19T08:48:04;24.10;77.10
53254;DHT22;39148;53.332;6.922;2023-06-19T08:50:31;24.10;77.00
53254;DHT22;39148;53.332;6.922;2023-06-19T08:52:57;24.10;77.20
53254;DHT22;39148;53.332;6.922;2023-06-19T08:55:23;24.10;77.10
53254;DHT22;39148;53.332;6.922;2023-06-19T08:57:50;24.20;77.30
53254;DHT22;39148;53.332;6.922;2023-06-19T09:00:27;24.10;77.20
53254;DHT22;39148;53.332;6.922;2023-06-19T09:03:00;24.20;77.50
53254;DHT22;39148;53.332;6.922;2023-06-19T09:05:29;24.20;77.50
53254;DHT22;39148;53.332;6.922;2023-06-19T09:08:00;24.20;77.30
53254;DHT22;39148;53.332;6.922;2023-06-19T09:10:29;24.20;77.50
53254;DHT22;39148;53.332;6.922;2023-06-19T09:13:02;24.10;77.20
53254;DHT22;39148;53.332;6.922;2023-06-19T09:15:33;24.10;77.60
53254;DHT22;39148;53.332;6.922;2023-06-19T09:18:07;24.10;77.50
53254;DHT22;39148;53.332;6.922;2023-06-19T09:20:39;24.20;77.60
53254;DHT22;39148;53.332;6.922;2023-06-19T09:23:10;24.30;76.20
53254;DHT22;39148;53.332;6.922;2023-06-19T09:25:57;24.20;77.40
53254;DHT22;39148;53.332;6.922;2023-06-19T09:28:24;24.10;77.50
53254;DHT22;39148;53.332;6.922;2023-06-19T09:31:01;24.20;77.40
53254;DHT22;39148;53.332;6.922;2023-06-19T09:33:29;24.10;77.50
53254;DHT22;39148;53.332;6.922;2023-06-19T09:35:56;24.10;77.30
53254;DHT22;39148;53.332;6.922;2023-06-19T09:38:27;24.20;77.30
53254;DHT22;39148;53.332;6.922;2023-06-19T09:40:53;24.10;77.40
53254;DHT22;39148;53.332;6.922;2023-06-19T09:43:25;24.10;77.30
53254;DHT22;39148;53.332;6.922;2023-06-19T09:45:54;24.10;77.40
53254;DHT22;39148;53.332;6.922;2023-06-19T09:48:25;24.10;77.40
53254;DHT22;39148;53.332;6.922;2023-06-19T09:50:54;24.00;77.30
53254;DHT22;39148;53.332;6.922;2023-06-19T09:53:25;24.00;77.30
53254;DHT22;39148;53.332;6.922;2023-06-19T09:55:51;24.10;77.30
53254;DHT22;39148;53.332;6.922;2023-06-19T09:58:20;24.10;77.20
53254;DHT22;39148;53.332;6.922;2023-06-19T10:00:47;24.10;77.30
53254;DHT22;39148;53.332;6.922;2023-06-19T10:03:15;24.00;77.30
53254;DHT22;39148;53.332;6.922;2023-06-19T10:05:42;24.00;77.20
53254;DHT22;39148;53.332;6.922;2023-06-19T10:08:08;24.10;77.20
53254;DHT22;39148;53.332;6.922;2023-06-19T10:10:34;24.10;77.20
53254;DHT22;39148;53.332;6.922;2023-06-19T10:13:13;24.00;77.20
53254;DHT22;39148;53.332;6.922;2023-06-19T10:15:44;24.00;77.40
53254;DHT22;39148;53.332;6.922;2023-06-19T10:18:17;24.00;77.30
53254;DHT22;39148;53.332;6.922;2023-06-19T10:20:44;24.00;77.30
53254;DHT22;39148;53.332;6.922;2023-06-19T10:23:21;24.00;77.10
53254;DHT22;39148;53.332;6.922;2023-06-19T10:25:58;24.10;77.50
53254;DHT22;39148;53.332;6.922;2023-06-19T10:28:32;24.00;77.10
53254;DHT22;39148;53.332;6.922;2023-06-19T10:31:04;24.00;77.30
53254;DHT22;39148;53.332;6.922;2023-06-19T10:33:31;24.00;77.20
53254;DHT22;39148;53.332;6.922;2023-06-19T10:35:59;24.00;77.00
53254;DHT22;39148;53.332;6.922;2023-06-19T10:38:28;24.10;77.10
53254;DHT22;39148;53.332;6.922;2023-06-19T10:40:54;24.00;76.90
53254;DHT22;39148;53.332;6.922;2023-06-19T10:43:22;24.00;77.40
53254;DHT22;39148;53.332;6.922;2023-06-19T10:45:51;23.40;76.80
53254;DHT22;39148;53.332;6.922;2023-06-19T10:48:21;24.10;77.00
53254;DHT22;39148;53.332;6.922;2023-06-19T10:50:48;24.20;77.00
53254;DHT22;39148;53.332;6.922;2023-06-19T10:53:27;24.20;77.00
53254;DHT22;39148;53.332;6.922;2023-06-19T10:56:00;24.10;75.60
53254;DHT22;39148;53.332;6.922;2023-06-19T10:58:27;24.40;77.10
53254;DHT22;39148;53.332;6.922;2023-06-19T11:00:53;24.10;76.80
53254;DHT22;39148;53.332;6.922;2023-06-19T11:03:20;24.10;77.30
53254;DHT22;39148;53.332;6.922;2023-06-19T11:05:46;24.20;76.80
53254;DHT22;39148;53.332;6.922;2023-06-19T11:08:26;24.10;76.60
53254;DHT22;39148;53.332;6.922;2023-06-19T11:10:52;24.30;76.70
53254;DHT22;39148;53.332;6.922;2023-06-19T11:13:19;24.10;77.10
53254;DHT22;39148;53.332;6.922;2023-06-19T11:15:45;24.10;76.80
53254;DHT22;39148;53.332;6.922;2023-06-19T11:18:15;24.10;76.50
53254;DHT22;39148;53.332;6.922;2023-06-19T11:20:49;24.20;76.40
53254;DHT22;39148;53.332;6.922;2023-06-19T11:23:24;24.50;76.60
53254;DHT22;39148;53.332;6.922;2023-06-19T11:25:50;24.30;76.40
53254;DHT22;39148;53.332;6.922;2023-06-19T11:28:16;24.20;76.50
53254;DHT22;39148;53.332;6.922;2023-06-19T11:30:48;24.30;76.50
53254;DHT22;39148;53.332;6.922;2023-06-19T11:33:19;24.30;76.40
53254;DHT22;39148;53.332;6.922;2023-06-19T11:35:52;24.10;74.80
53254;DHT22;39148;53.332;6.922;2023-06-19T11:38:25;24.70;76.60
53254;DHT22;39148;53.332;6.922;2023-06-19T11:40:52;24.20;75.00
53254;DHT22;39148;53.332;6.922;2023-06-19T11:43:31;24.30;76.50
53254;DHT22;39148;53.332;6.922;2023-06-19T11:46:04;24.30;76.40
53254;DHT22;39148;53.332;6.922;2023-06-19T11:48:29;24.30;76.40
53254;DHT22;39148;53.332;6.922;2023-06-19T11:50:55;24.30;76.40
53254;DHT22;39148;53.332;6.922;2023-06-19T11:53:22;24.40;76.60
53254;DHT22;39148;53.332;6.922;2023-06-19T11:55:49;24.40;76.20
53254;DHT22;39148;53.332;6.922;2023-06-19T11:58:15;24.30;76.50
53254;DHT22;39148;53.332;6.922;2023-06-19T12:00:41;24.30;76.30
53254;DHT22;39148;53.332;6.922;2023-06-19T12:03:07;24.30;76.00
53254;DHT22;39148;53.332;6.922;2023-06-19T12:05:33;24.40;76.00
53254;DHT22;39148;53.332;6.922;2023-06-19T12:07:59;24.40;76.30
53254;DHT22;39148;53.332;6.922;2023-06-19T12:10:28;24.40;76.30
53254;DHT22;39148;53.332;6.922;2023-06-19T12:12:54;24.30;75.90
53254;DHT22;39148;53.332;6.922;2023-06-19T12:15:19;24.70;76.90
53254;DHT22;39148;53.332;6.922;2023-06-19T12:17:46;24.40;76.20
53254;DHT22;39148;53.332;6.922;2023-06-19T12:20:12;24.50;76.30
53254;DHT22;39148;53.332;6.922;2023-06-19T12:22:39;24.50;75.60
53254;DHT22;39148;53.332;6.922;2023-06-19T12:25:05;24.60;75.80
53254;DHT22;39148;53.332;6.922;2023-06-19T12:27:31;24.70;76.00
53254;DHT22;39148;53.332;6.922;2023-06-19T12:29:57;24.50;76.30
53254;DHT22;39148;53.332;6.922;2023-06-19T12:32:22;24.50;75.90
53254;DHT22;39148;53.332;6.922;2023-06-19T12:34:49;24.60;75.80
53254;DHT22;39148;53.332;6.922;2023-06-19T12:37:15;24.60;75.70
53254;DHT22;39148;53.332;6.922;2023-06-19T12:39:43;24.80;75.70
53254;DHT22;39148;53.332;6.922;2023-06-19T12:42:09;24.60;75.60
53254;DHT22;39148;53.332;6.922;2023-06-19T12:44:41;24.60;75.90
53254;DHT22;39148;53.332;6.922;2023-06-19T12:47:08;24.50;74.00
53254;DHT22;39148;53.332;6.922;2023-06-19T12:49:34;24.70;75.80
53254;DHT22;39148;53.332;6.922;2023-06-19T12:52:00;24.80;76.30
53254;DHT22;39148;53.332;6.922;2023-06-19T12:54:26;24.80;76.20
53254;DHT22;39148;53.332;6.922;2023-06-19T12:56:52;24.70;75.60
53254;DHT22;39148;53.332;6.922;2023-06-19T12:59:18;25.00;76.00
53254;DHT22;39148;53.332;6.922;2023-06-19T13:01:43;24.90;75.80
53254;DHT22;39148;53.332;6.922;2023-06-19T13:04:11;24.90;76.00
53254;DHT22;39148;53.332;6.922;2023-06-19T13:06:36;24.70;75.10
53254;DHT22;39148;53.332;6.922;2023-06-19T13:09:03;24.80;76.10
53254;DHT22;39148;53.332;6.922;2023-06-19T13:11:30;24.80;75.00
53254;DHT22;39148;53.332;6.922;2023-06-19T13:13:56;24.80;75.60
53254;DHT22;39148;53.332;6.922;2023-06-19T13:16:22;24.80;75.70
53254;DHT22;39148;53.332;6.922;2023-06-19T13:18:51;24.80;75.10
53254;DHT22;39148;53.332;6.922;2023-06-19T13:21:17;24.90;75.50
53254;DHT22;39148;53.332;6.922;2023-06-19T13:23:42;24.90;75.30
53254;DHT22;39148;53.332;6.922;2023-06-19T13:26:08;25.10;75.70
53254;DHT22;39148;53.332;6.922;2023-06-19T13:28:34;24.90;74.70
53254;DHT22;39148;53.332;6.922;2023-06-19T13:30:59;24.90;74.80
53254;DHT22;39148;53.332;6.922;2023-06-19T13:33:25;24.90;74.70
53254;DHT22;39148;53.332;6.922;2023-06-19T13:35:51;24.90;74.60
53254;DHT22;39148;53.332;6.922;2023-06-19T13:38:17;25.10;74.80
53254;DHT22;39148;53.332;6.922;2023-06-19T13:40:44;25.00;74.60
53254;DHT22;39148;53.332;6.922;2023-06-19T13:43:10;25.00;74.50
53254;DHT22;39148;53.332;6.922;2023-06-19T13:45:35;25.10;74.60
53254;DHT22;39148;53.332;6.922;2023-06-19T13:48:04;25.10;74.60
53254;DHT22;39148;53.332;6.922;2023-06-19T13:50:30;25.10;74.40
53254;DHT22;39148;53.332;6.922;2023-06-19T13:52:55;25.10;74.40
53254;DHT22;39148;53.332;6.922;2023-06-19T13:55:21;25.10;74.50
53254;DHT22;39148;53.332;6.922;2023-06-19T13:57:48;25.10;74.40
53254;DHT22;39148;53.332;6.922;2023-06-19T14:00:14;25.00;74.30
53254;DHT22;39148;53.332;6.922;2023-06-19T14:02:40;25.20;74.20
53254;DHT22;39148;53.332;6.922;2023-06-19T14:05:07;25.20;74.30
53254;DHT22;39148;53.332;6.922;2023-06-19T14:07:34;25.30;74.10
53254;DHT22;39148;53.332;6.922;2023-06-19T14:10:01;25.30;74.30
53254;DHT22;39148;53.332;6.922;2023-06-19T14:12:27;25.30;74.20
53254;DHT22;39148;53.332;6.922;2023-06-19T14:14:53;25.20;74.10
53254;DHT22;39148;53.332;6.922;2023-06-19T14:17:19;25.20;74.10
53254;DHT22;39148;53.332;6.922;2023-06-19T14:19:44;25.40;74.00
53254;DHT22;39148;53.332;6.922;2023-06-19T14:22:10;25.40;74.10
53254;DHT22;39148;53.332;6.922;2023-06-19T14:24:35;25.40;74.00
53254;DHT22;39148;53.332;6.922;2023-06-19T14:27:01;25.40;74.00
53254;DHT22;39148;53.332;6.922;2023-06-19T14:29:27;25.50;74.20
53254;DHT22;39148;53.332;6.922;2023-06-19T14:31:53;25.40;74.50
53254;DHT22;39148;53.332;6.922;2023-06-19T14:34:19;25.40;74.10
53254;DHT22;39148;53.332;6.922;2023-06-19T14:36:45;25.50;74.00
53254;DHT22;39148;53.332;6.922;2023-06-19T14:39:14;25.60;74.00
53254;DHT22;39148;53.332;6.922;2023-06-19T14:41:39;25.50;74.00
53254;DHT22;39148;53.332;6.922;2023-06-19T14:44:05;25.60;73.80
53254;DHT22;39148;53.332;6.922;2023-06-19T14:46:34;25.70;73.00
53254;DHT22;39148;53.332;6.922;2023-06-19T14:49:06;25.50;73.80
53254;DHT22;39148;53.332;6.922;2023-06-19T14:51:31;25.60;73.80
53254;DHT22;39148;53.332;6.922;2023-06-19T14:53:57;25.60;73.70
53254;DHT22;39148;53.332;6.922;2023-06-19T14:56:23;25.70;73.80
53254;DHT22;39148;53.332;6.922;2023-06-19T14:58:49;25.60;73.70
53254;DHT22;39148;53.332;6.922;2023-06-19T15:01:15;25.80;73.80
53254;DHT22;39148;53.332;6.922;2023-06-19T15:03:42;25.60;73.50
53254;DHT22;39148;53.332;6.922;2023-06-19T15:06:08;25.60;73.50
53254;DHT22;39148;53.332;6.922;2023-06-19T15:08:33;25.70;73.50
53254;DHT22;39148;53.332;6.922;2023-06-19T15:11:01;26.60;74.20
53254;DHT22;39148;53.332;6.922;2023-06-19T15:13:28;25.80;73.50
53254;DHT22;39148;53.332;6.922;2023-06-19T15:15:54;25.80;73.50
53254;DHT22;39148;53.332;6.922;2023-06-19T15:18:20;25.70;73.40
53254;DHT22;39148;53.332;6.922;2023-06-19T15:20:45;25.80;73.40
53254;DHT22;39148;53.332;6.922;2023-06-19T15:23:12;25.80;73.50
53254;DHT22;39148;53.332;6.922;2023-06-19T15:25:37;25.90;73.30
53254;DHT22;39148;53.332;6.922;2023-06-19T15:28:03;26.00;73.40
53254;DHT22;39148;53.332;6.922;2023-06-19T15:30:29;26.00;73.50